Time;durP1;ratioP1;P1;durP2;ratioP2;P2;SDS_P1;SDS_P2;PMS_P1;PMS_P2;Temp;Humidity;BMP_temperature;BMP_pressure;BME280_temperature;BME280_humidity;BME280_pressure;Samples;Min_cycle;Max_cycle;Signal;HPM_P1;HPM_P2
2022/11/13 00:01:14;;;;;;;17.63;13.40;;;;;;;;;;5044928;28;20048;-65
2022/11/13 00:03:40;;;;;;;19.55;13.88;;;;;;;;;;5031377;28;20084;-65
2022/11/13 00:06:07;;;;;;;17.60;12.18;;;;;;;;;;5031432;28;20076;-65
2022/11/13 00:08:33;;;;;;;18.58;13.13;;;;;;;;;;5046081;28;20653;-65
2022/11/13 00:11:04;;;;;;;24.35;15.35;;;;;;;;;;5051648;28;20059;-65
2022/11/13 00:13:30;;;;;;;21.42;14.35;;;;;;;;;;5051303;28;20557;-65
2022/11/13 00:15:57;;;;;;;21.23;15.98;;;;;;;;;;5051171;28;20410;-65
2022/11/13 00:18:23;;;;;;;21.77;17.15;;;;;;;;;;5046466;28;20036;-65
2022/11/13 00:20:49;;;;;;;29.10;20.42;;;;;;;;;;5051522;28;20098;-65
2022/11/13 00:23:15;;;;;;;28.58;17.77;;;;;;;;;;5050878;28;20029;-65
2022/11/13 00:25:41;;;;;;;31.23;18.88;;;;;;;;;;5051578;28;20037;-65
2022/11/13 00:28:07;;;;;;;18.33;13.80;;;;;;;;;;5051897;28;20041;-65
2022/11/13 00:30:33;;;;;;;17.60;12.25;;;;;;;;;;5051555;28;20075;-65
2022/11/13 00:32:59;;;;;;;21.35;13.50;;;;;;;;;;5051504;28;20048;-65
2022/11/13 00:35:25;;;;;;;18.13;13.45;;;;;;;;;;5051359;28;20041;-65
2022/11/13 00:37:51;;;;;;;16.60;11.90;;;;;;;;;;5051205;28;20080;-65
2022/11/13 00:40:17;;;;;;;20.85;13.48;;;;;;;;;;5051561;28;20044;-65
2022/11/13 00:42:43;;;;;;;17.73;12.57;;;;;;;;;;5051767;28;20052;-65
2022/11/13 00:45:09;;;;;;;20.13;13.05;;;;;;;;;;5050930;28;20056;-65
2022/11/13 00:47:35;;;;;;;15.32;11.75;;;;;;;;;;5050683;28;20043;-65
2022/11/13 00:50:01;;;;;;;19.35;12.43;;;;;;;;;;5051557;28;20087;-65
2022/11/13 00:52:27;;;;;;;19.42;13.35;;;;;;;;;;5050589;28;20553;-65
2022/11/13 00:54:54;;;;;;;15.93;11.75;;;;;;;;;;5051454;28;20043;-65
2022/11/13 00:57:20;;;;;;;17.77;12.55;;;;;;;;;;5051074;28;20045;-65
2022/11/13 00:59:46;;;;;;;17.17;11.98;;;;;;;;;;5050560;28;20043;-65
2022/11/13 01:02:14;;;;;;;18.33;12.60;;;;;;;;;;5051367;28;20119;-65
2022/11/13 01:04:40;;;;;;;17.38;12.15;;;;;;;;;;5051380;28;20045;-65
2022/11/13 01:07:06;;;;;;;19.33;11.80;;;;;;;;;;5050841;28;20044;-65
2022/11/13 01:09:32;;;;;;;17.25;12.15;;;;;;;;;;5051301;28;20601;-65
2022/11/13 01:11:58;;;;;;;20.27;13.07;;;;;;;;;;5051125;28;20056;-65
2022/11/13 01:14:24;;;;;;;17.30;11.45;;;;;;;;;;5050664;28;20442;-65
2022/11/13 01:16:51;;;;;;;18.25;11.95;;;;;;;;;;5051320;28;20044;-65
2022/11/13 01:19:17;;;;;;;17.10;12.02;;;;;;;;;;5051249;28;20124;-65
2022/11/13 01:21:43;;;;;;;18.25;12.55;;;;;;;;;;5050825;28;20079;-65
2022/11/13 01:24:09;;;;;;;19.25;12.70;;;;;;;;;;5050749;28;20043;-65
2022/11/13 01:26:35;;;;;;;18.45;12.02;;;;;;;;;;5050978;28;20047;-65
2022/11/13 01:29:01;;;;;;;23.27;14.02;;;;;;;;;;5050770;28;20045;-65
2022/11/13 01:31:28;;;;;;;19.88;13.18;;;;;;;;;;5051069;28;20487;-65
2022/11/13 01:33:55;;;;;;;16.08;11.98;;;;;;;;;;5051035;28;20075;-65
2022/11/13 01:36:23;;;;;;;20.40;12.63;;;;;;;;;;5050528;28;20403;-65
2022/11/13 01:38:49;;;;;;;15.60;11.68;;;;;;;;;;5050733;28;20074;-65
2022/11/13 01:41:17;;;;;;;18.27;12.43;;;;;;;;;;5050833;28;20041;-65
2022/11/13 01:43:43;;;;;;;17.88;12.23;;;;;;;;;;5050256;28;20155;-65
2022/11/13 01:46:13;;;;;;;17.83;12.30;;;;;;;;;;5051069;28;20048;-65
2022/11/13 01:48:44;;;;;;;16.67;11.95;;;;;;;;;;5051103;28;20468;-65
2022/11/13 01:51:16;;;;;;;19.23;12.40;;;;;;;;;;5050540;28;20043;-65
2022/11/13 01:53:43;;;;;;;23.25;11.90;;;;;;;;;;5050938;28;20498;-65
2022/11/13 01:56:10;;;;;;;15.43;11.48;;;;;;;;;;5050832;28;20415;-65
2022/11/13 01:58:37;;;;;;;17.90;11.88;;;;;;;;;;5052635;28;20041;-65
2022/11/13 02:01:03;;;;;;;21.52;11.95;;;;;;;;;;5054814;28;20051;-65
2022/11/13 02:03:29;;;;;;;17.02;12.23;;;;;;;;;;5054532;28;20036;-65
2022/11/13 02:05:55;;;;;;;17.85;12.05;;;;;;;;;;5053916;28;20128;-65
2022/11/13 02:08:22;;;;;;;20.27;12.77;;;;;;;;;;5054518;28;20076;-65
2022/11/13 02:10:48;;;;;;;18.23;12.95;;;;;;;;;;5054563;28;20041;-65
2022/11/13 02:13:15;;;;;;;17.80;12.25;;;;;;;;;;5053699;28;20140;-65
2022/11/13 02:15:42;;;;;;;21.48;13.32;;;;;;;;;;5054480;28;20779;-65
2022/11/13 02:18:08;;;;;;;18.38;12.30;;;;;;;;;;5054308;28;20438;-65
2022/11/13 02:20:34;;;;;;;18.63;12.57;;;;;;;;;;5053800;28;20033;-65
2022/11/13 02:23:00;;;;;;;19.40;13.02;;;;;;;;;;5054279;28;20087;-65
2022/11/13 02:25:28;;;;;;;19.20;13.38;;;;;;;;;;5053900;28;20533;-65
2022/11/13 02:27:54;;;;;;;19.48;13.50;;;;;;;;;;5053543;28;20045;-65
2022/11/13 02:30:28;;;;;;;18.05;12.25;;;;;;;;;;5054031;28;20044;-65
2022/11/13 02:32:55;;;;;;;17.92;12.65;;;;;;;;;;5053977;28;20045;-65
2022/11/13 02:35:26;;;;;;;18.70;13.68;;;;;;;;;;5053693;28;20044;-65
2022/11/13 02:37:54;;;;;;;18.25;13.15;;;;;;;;;;5053939;28;20045;-65
2022/11/13 02:40:20;;;;;;;20.30;14.35;;;;;;;;;;5053684;28;20400;-65
2022/11/13 02:42:46;;;;;;;17.95;12.85;;;;;;;;;;5053512;28;20465;-65
2022/11/13 02:45:12;;;;;;;17.95;13.15;;;;;;;;;;5053697;28;20037;-65
2022/11/13 02:47:38;;;;;;;20.30;13.43;;;;;;;;;;5053678;28;20127;-65
2022/11/13 02:50:05;;;;;;;19.83;12.80;;;;;;;;;;5053252;28;20049;-65
2022/11/13 02:52:31;;;;;;;18.95;14.05;;;;;;;;;;5053679;28;20384;-65
2022/11/13 02:54:57;;;;;;;19.40;13.20;;;;;;;;;;5053239;28;20045;-65
2022/11/13 02:57:23;;;;;;;21.00;13.93;;;;;;;;;;5053101;28;20135;-65
2022/11/13 02:59:49;;;;;;;18.90;12.85;;;;;;;;;;5053514;28;20039;-65
2022/11/13 03:02:15;;;;;;;16.75;12.88;;;;;;;;;;5053457;28;20495;-65
2022/11/13 03:04:41;;;;;;;20.42;13.55;;;;;;;;;;5053098;28;20037;-65
2022/11/13 03:07:07;;;;;;;21.40;13.82;;;;;;;;;;5053487;28;20033;-65
2022/11/13 03:09:33;;;;;;;19.30;13.13;;;;;;;;;;5052127;28;20044;-65
2022/11/13 03:11:59;;;;;;;20.92;14.13;;;;;;;;;;5052831;28;20447;-65
2022/11/13 03:14:25;;;;;;;18.42;13.68;;;;;;;;;;5053376;28;20049;-65
2022/11/13 03:16:52;;;;;;;19.70;13.63;;;;;;;;;;5053189;28;20131;-65
2022/11/13 03:19:18;;;;;;;19.00;13.48;;;;;;;;;;5052832;28;20452;-65
2022/11/13 03:21:44;;;;;;;18.77;13.63;;;;;;;;;;5052798;28;20044;-65
2022/11/13 03:24:10;;;;;;;20.20;14.20;;;;;;;;;;5052992;28;20087;-65
2022/11/13 03:26:36;;;;;;;18.98;13.50;;;;;;;;;;5052803;28;20604;-65
2022/11/13 03:29:02;;;;;;;21.88;14.55;;;;;;;;;;5052829;28;20037;-65
2022/11/13 03:31:28;;;;;;;19.08;14.38;;;;;;;;;;5052814;28;20059;-65
2022/11/13 03:33:54;;;;;;;24.60;15.25;;;;;;;;;;5052900;28;20094;-65
2022/11/13 03:36:21;;;;;;;19.77;14.27;;;;;;;;;;5052401;28;20084;-65
2022/11/13 03:38:47;;;;;;;20.15;14.32;;;;;;;;;;5051124;28;20051;-65
2022/11/13 03:41:13;;;;;;;22.67;15.32;;;;;;;;;;5052660;28;20475;-65
2022/11/13 03:43:40;;;;;;;22.13;15.43;;;;;;;;;;5052239;28;20086;-65
2022/11/13 03:46:06;;;;;;;20.23;14.88;;;;;;;;;;5052636;28;20037;-65
2022/11/13 03:48:32;;;;;;;21.35;15.52;;;;;;;;;;5051382;28;20076;-65
2022/11/13 03:50:58;;;;;;;22.77;14.15;;;;;;;;;;5052142;28;20467;-65
2022/11/13 03:53:24;;;;;;;20.70;14.38;;;;;;;;;;5052597;28;20041;-65
2022/11/13 03:55:51;;;;;;;20.63;15.13;;;;;;;;;;5052319;28;20037;-65
2022/11/13 03:58:17;;;;;;;21.42;14.68;;;;;;;;;;5052162;28;20718;-65
2022/11/13 04:00:44;;;;;;;20.58;14.23;;;;;;;;;;5052206;28;20037;-65
2022/11/13 04:03:10;;;;;;;23.77;15.13;;;;;;;;;;5052365;28;20041;-65
2022/11/13 04:05:37;;;;;;;17.98;13.50;;;;;;;;;;5051594;28;20040;-65
2022/11/13 04:08:03;;;;;;;23.38;15.10;;;;;;;;;;5052305;28;20088;-65
2022/11/13 04:10:30;;;;;;;20.67;14.50;;;;;;;;;;5052125;28;20047;-65
2022/11/13 04:12:56;;;;;;;19.05;14.52;;;;;;;;;;5051485;28;20056;-65
2022/11/13 04:15:22;;;;;;;20.33;15.18;;;;;;;;;;5052003;28;20055;-65
2022/11/13 04:17:48;;;;;;;22.85;16.05;;;;;;;;;;5051923;28;20076;-65
2022/11/13 04:20:14;;;;;;;21.30;15.43;;;;;;;;;;5051103;28;20523;-65
2022/11/13 04:22:41;;;;;;;21.20;14.05;;;;;;;;;;5052011;28;20090;-65
2022/11/13 04:25:07;;;;;;;21.90;15.00;;;;;;;;;;5051693;28;20029;-65
2022/11/13 04:27:33;;;;;;;19.48;14.43;;;;;;;;;;5051513;28;20468;-65
2022/11/13 04:29:59;;;;;;;21.13;15.40;;;;;;;;;;5051784;28;20037;-65
2022/11/13 04:32:25;;;;;;;20.42;14.68;;;;;;;;;;5051810;28;20037;-65
2022/11/13 04:34:51;;;;;;;25.50;15.38;;;;;;;;;;5051449;28;20072;-65
2022/11/13 04:37:17;;;;;;;21.40;14.60;;;;;;;;;;5051693;28;20049;-65
2022/11/13 04:39:43;;;;;;;20.90;14.90;;;;;;;;;;5051561;28;20048;-65
2022/11/13 04:44:55;;;;;;;22.38;15.63;;;;;;;;;;5051531;28;20128;-65
2022/11/13 04:47:21;;;;;;;20.85;14.27;;;;;;;;;;5051330;28;20053;-65
2022/11/13 04:49:47;;;;;;;21.50;15.80;;;;;;;;;;5051086;28;20041;-65
2022/11/13 04:52:14;;;;;;;21.77;15.15;;;;;;;;;;5051714;28;20448;-65
2022/11/13 04:54:40;;;;;;;22.10;15.13;;;;;;;;;;5051573;28;20368;-65
2022/11/13 04:57:06;;;;;;;22.80;15.25;;;;;;;;;;5051031;28;20049;-65
2022/11/13 04:59:32;;;;;;;22.40;15.55;;;;;;;;;;5051414;28;20656;-65
2022/11/13 05:01:58;;;;;;;19.25;14.00;;;;;;;;;;5051499;28;20037;-65
2022/11/13 05:04:24;;;;;;;17.85;13.43;;;;;;;;;;5051089;28;20033;-65
2022/11/13 05:06:50;;;;;;;22.70;15.45;;;;;;;;;;5051340;28;20039;-65
2022/11/13 05:09:16;;;;;;;20.33;14.00;;;;;;;;;;5051466;28;20052;-65
2022/11/13 05:11:42;;;;;;;25.83;16.10;;;;;;;;;;5050536;28;20132;-65
2022/11/13 05:14:11;;;;;;;19.92;14.52;;;;;;;;;;5051048;28;20056;-65
2022/11/13 05:16:37;;;;;;;20.70;14.88;;;;;;;;;;5051355;28;20086;-65
2022/11/13 05:19:06;;;;;;;25.33;16.20;;;;;;;;;;5050528;28;20041;-65
2022/11/13 05:21:32;;;;;;;25.05;16.77;;;;;;;;;;5051337;28;20460;-65
2022/11/13 05:23:58;;;;;;;23.30;15.80;;;;;;;;;;5050909;28;20175;-65
2022/11/13 05:26:27;;;;;;;23.20;15.70;;;;;;;;;;5050810;28;20387;-65
2022/11/13 05:28:56;;;;;;;22.20;16.17;;;;;;;;;;5051461;28;20388;-65
2022/11/13 05:31:22;;;;;;;23.98;15.48;;;;;;;;;;5050864;28;20051;-65
2022/11/13 05:33:48;;;;;;;23.02;15.73;;;;;;;;;;5053487;28;20048;-65
2022/11/13 05:36:15;;;;;;;23.55;16.70;;;;;;;;;;5054748;28;20124;-65
2022/11/13 05:38:41;;;;;;;25.98;15.48;;;;;;;;;;5055065;28;20059;-65
2022/11/13 05:41:09;;;;;;;20.75;15.50;;;;;;;;;;5054204;28;20041;-65
2022/11/13 05:43:35;;;;;;;25.13;16.58;;;;;;;;;;5054576;28;20095;-65
2022/11/13 05:46:20;;;;;;;25.90;16.55;;;;;;;;;;5054909;28;20036;-65
2022/11/13 05:48:47;;;;;;;23.20;16.40;;;;;;;;;;5054398;28;20033;-65
2022/11/13 05:51:17;;;;;;;25.70;15.60;;;;;;;;;;5054631;28;20029;-65
2022/11/13 05:53:44;;;;;;;22.67;15.90;;;;;;;;;;5054586;28;20041;-65
2022/11/13 05:56:11;;;;;;;22.38;15.35;;;;;;;;;;5053895;28;20044;-65
2022/11/13 05:58:38;;;;;;;21.20;14.68;;;;;;;;;;5054623;28;20487;-65
2022/11/13 06:01:10;;;;;;;22.33;15.73;;;;;;;;;;5054420;28;20491;-65
2022/11/13 06:03:37;;;;;;;21.95;14.85;;;;;;;;;;5054165;28;20037;-65
2022/11/13 06:06:03;;;;;;;24.88;15.75;;;;;;;;;;5054241;28;20041;-65
2022/11/13 06:08:29;;;;;;;22.00;14.57;;;;;;;;;;5054512;28;20573;-65
2022/11/13 06:10:59;;;;;;;21.88;14.65;;;;;;;;;;5053973;28;20048;-65
2022/11/13 06:13:25;;;;;;;22.10;15.52;;;;;;;;;;5054042;28;20615;-65
2022/11/13 06:15:51;;;;;;;21.58;15.32;;;;;;;;;;5054336;28;20120;-65
2022/11/13 06:18:22;;;;;;;22.73;15.55;;;;;;;;;;5053701;28;20049;-65
2022/11/13 06:20:48;;;;;;;21.50;15.60;;;;;;;;;;5054133;28;20041;-65
2022/11/13 06:23:14;;;;;;;21.73;15.63;;;;;;;;;;5054129;28;20072;-65
2022/11/13 06:25:40;;;;;;;22.05;15.13;;;;;;;;;;5053594;28;20076;-65
2022/11/13 06:28:06;;;;;;;21.58;14.82;;;;;;;;;;5053790;28;20041;-65
2022/11/13 06:30:32;;;;;;;21.15;15.23;;;;;;;;;;5035836;28;20041;-65
2022/11/13 06:32:58;;;;;;;20.38;14.60;;;;;;;;;;5053452;28;20068;-65
2022/11/13 06:35:24;;;;;;;25.60;14.90;;;;;;;;;;5054012;28;20049;-65
2022/11/13 06:37:50;;;;;;;24.15;15.43;;;;;;;;;;5053820;28;20033;-65
2022/11/13 06:40:16;;;;;;;23.02;15.27;;;;;;;;;;5053345;28;20084;-65
2022/11/13 06:42:42;;;;;;;19.02;14.25;;;;;;;;;;5053789;28;20037;-65
2022/11/13 06:45:08;;;;;;;20.92;14.80;;;;;;;;;;5053719;28;20357;-65
2022/11/13 06:47:34;;;;;;;20.65;13.98;;;;;;;;;;5053109;28;20049;-65
2022/11/13 06:50:01;;;;;;;21.60;15.10;;;;;;;;;;5053450;28;20044;-65
2022/11/13 06:52:27;;;;;;;19.42;14.20;;;;;;;;;;5053581;28;20041;-65
2022/11/13 06:54:53;;;;;;;21.05;15.10;;;;;;;;;;5053359;28;20045;-65
2022/11/13 06:57:19;;;;;;;19.77;14.80;;;;;;;;;;5053288;28;20099;-65
2022/11/13 06:59:45;;;;;;;19.45;13.65;;;;;;;;;;5053508;28;20134;-65
2022/11/13 07:02:11;;;;;;;23.10;15.32;;;;;;;;;;5053074;28;20371;-65
2022/11/13 07:04:37;;;;;;;22.65;15.38;;;;;;;;;;5053387;28;20058;-65
2022/11/13 07:07:03;;;;;;;22.13;14.57;;;;;;;;;;5053365;28;20051;-65
2022/11/13 07:09:30;;;;;;;22.00;14.88;;;;;;;;;;5052945;28;20094;-65
2022/11/13 07:11:56;;;;;;;19.27;14.52;;;;;;;;;;5052869;28;20048;-65
2022/11/13 07:14:22;;;;;;;18.95;13.90;;;;;;;;;;5053200;28;20120;-65
2022/11/13 07:16:48;;;;;;;20.77;14.93;;;;;;;;;;5052724;28;20403;-65
2022/11/13 07:19:14;;;;;;;21.27;14.20;;;;;;;;;;5052740;28;20123;-65
2022/11/13 07:21:40;;;;;;;22.10;14.70;;;;;;;;;;5052584;28;20041;-65
2022/11/13 07:24:06;;;;;;;22.65;14.82;;;;;;;;;;5052622;28;20044;-65
2022/11/13 07:26:32;;;;;;;23.23;14.20;;;;;;;;;;5053004;28;20625;-65
2022/11/13 07:28:58;;;;;;;18.00;13.82;;;;;;;;;;5053005;28;20040;-65
2022/11/13 07:31:24;;;;;;;25.17;15.55;;;;;;;;;;5052067;28;20048;-65
2022/11/13 07:33:51;;;;;;;21.95;14.90;;;;;;;;;;5052966;28;20124;-65
2022/11/13 07:36:17;;;;;;;20.67;15.43;;;;;;;;;;5052861;28;20052;-65
2022/11/13 07:38:44;;;;;;;20.77;14.82;;;;;;;;;;5052382;28;20527;-65
2022/11/13 07:41:10;;;;;;;24.42;15.60;;;;;;;;;;5052785;28;20045;-65
2022/11/13 07:43:36;;;;;;;20.73;13.80;;;;;;;;;;5052335;28;20045;-65
2022/11/13 07:46:02;;;;;;;23.60;14.82;;;;;;;;;;5051922;28;20119;-65
2022/11/13 07:48:28;;;;;;;19.40;14.10;;;;;;;;;;5052259;28;20044;-65
2022/11/13 07:50:54;;;;;;;22.55;15.23;;;;;;;;;;5052353;28;20052;-65
2022/11/13 07:53:21;;;;;;;20.25;14.63;;;;;;;;;;5052048;28;20033;-65
2022/11/13 07:55:48;;;;;;;22.45;14.05;;;;;;;;;;5051939;28;20424;-65
2022/11/13 07:58:14;;;;;;;21.33;14.65;;;;;;;;;;5052301;28;20052;-65
2022/11/13 08:00:40;;;;;;;23.75;15.02;;;;;;;;;;5051683;28;20052;-65
2022/11/13 08:03:07;;;;;;;22.15;15.07;;;;;;;;;;5052021;28;20045;-65
2022/11/13 08:05:33;;;;;;;20.77;13.57;;;;;;;;;;5052029;28;20041;-65
2022/11/13 08:07:59;;;;;;;28.17;15.18;;;;;;;;;;5051780;28;20040;-65
2022/11/13 08:10:25;;;;;;;22.33;14.98;;;;;;;;;;5052107;28;20068;-65
2022/11/13 08:13:01;;;;;;;21.35;15.25;;;;;;;;;;5051990;28;20053;-65
2022/11/13 08:15:28;;;;;;;23.77;15.50;;;;;;;;;;5051729;28;20454;-65
2022/11/13 08:17:55;;;;;;;22.15;16.13;;;;;;;;;;5051969;28;20041;-65
2022/11/13 08:20:22;;;;;;;19.00;14.70;;;;;;;;;;5051892;28;20581;-65
2022/11/13 08:22:48;;;;;;;23.77;15.70;;;;;;;;;;5051589;28;20071;-65
2022/11/13 08:25:14;;;;;;;20.52;15.40;;;;;;;;;;5051955;28;20045;-65
2022/11/13 08:27:40;;;;;;;20.65;14.70;;;;;;;;;;5051937;28;20387;-65
2022/11/13 08:30:07;;;;;;;20.05;14.27;;;;;;;;;;5051043;28;20040;-65
2022/11/13 08:32:33;;;;;;;20.58;14.70;;;;;;;;;;5051510;28;20080;-65
2022/11/13 08:34:59;;;;;;;19.33;13.73;;;;;;;;;;5052050;28;20037;-65
2022/11/13 08:37:25;;;;;;;21.70;14.63;;;;;;;;;;5051599;28;20776;-65
2022/11/13 08:39:51;;;;;;;22.33;15.70;;;;;;;;;;5051476;28;20390;-65
2022/11/13 08:42:17;;;;;;;21.85;16.20;;;;;;;;;;5051734;28;20045;-65
2022/11/13 08:44:43;;;;;;;22.35;16.15;;;;;;;;;;5051690;28;20554;-65
2022/11/13 08:47:09;;;;;;;23.92;15.65;;;;;;;;;;5051346;28;20036;-65
2022/11/13 08:49:35;;;;;;;19.15;14.43;;;;;;;;;;5051403;28;20609;-65
2022/11/13 08:52:01;;;;;;;18.38;13.40;;;;;;;;;;5051621;28;20040;-65
2022/11/13 08:54:27;;;;;;;18.20;13.93;;;;;;;;;;5051080;28;20086;-65
2022/11/13 08:56:53;;;;;;;20.35;13.93;;;;;;;;;;5051486;28;20120;-65
2022/11/13 08:59:22;;;;;;;21.80;13.98;;;;;;;;;;5051569;28;20575;-65
2022/11/13 09:01:48;;;;;;;22.67;15.20;;;;;;;;;;5051042;28;20048;-65
2022/11/13 09:04:14;;;;;;;19.17;13.43;;;;;;;;;;5051120;28;20107;-65
2022/11/13 09:06:40;;;;;;;18.20;13.43;;;;;;;;;;5051235;28;20041;-65
2022/11/13 09:09:06;;;;;;;20.95;14.02;;;;;;;;;;5053802;28;20060;-65
2022/11/13 09:11:33;;;;;;;19.83;13.50;;;;;;;;;;5055523;28;20048;-65
2022/11/13 09:13:59;;;;;;;18.50;13.73;;;;;;;;;;5055154;28;20128;-65
2022/11/13 09:16:25;;;;;;;23.30;13.60;;;;;;;;;;5055051;28;20044;-65
2022/11/13 09:18:52;;;;;;;18.25;12.52;;;;;;;;;;5055301;28;20056;-65
2022/11/13 09:21:18;;;;;;;17.75;12.68;;;;;;;;;;5055289;28;20435;-65
2022/11/13 09:23:44;;;;;;;17.50;12.73;;;;;;;;;;5055048;28;20087;-65
2022/11/13 09:26:10;;;;;;;19.20;12.82;;;;;;;;;;5055259;28;20037;-65
2022/11/13 09:28:36;;;;;;;18.35;13.52;;;;;;;;;;5055207;28;20041;-65
2022/11/13 09:31:06;;;;;;;15.82;12.52;;;;;;;;;;5054475;28;20545;-65
2022/11/13 09:33:32;;;;;;;18.77;12.85;;;;;;;;;;5054792;28;20041;-65
2022/11/13 09:35:58;;;;;;;18.50;13.35;;;;;;;;;;5054816;28;20043;-65
2022/11/13 09:38:24;;;;;;;17.58;12.63;;;;;;;;;;5054658;28;20542;-65
2022/11/13 09:40:54;;;;;;;19.10;13.48;;;;;;;;;;5054657;28;20091;-65
2022/11/13 09:43:23;;;;;;;17.58;12.32;;;;;;;;;;5055045;28;20063;-65
2022/11/13 09:49:14;;;;;;;18.52;12.68;;;;;;;;;;5054586;28;20063;-65
2022/11/13 09:51:41;;;;;;;16.98;12.40;;;;;;;;;;5054067;28;20122;-65
2022/11/13 09:54:13;;;;;;;15.40;12.15;;;;;;;;;;5054823;28;20056;-65
2022/11/13 09:56:42;;;;;;;15.80;10.97;;;;;;;;;;5054432;28;20080;-65
2022/11/13 09:59:11;;;;;;;16.30;11.30;;;;;;;;;;5054129;28;20267;-65
2022/11/13 10:01:57;;;;;;;14.50;11.52;;;;;;;;;;5054566;28;20047;-65
2022/11/13 10:04:32;;;;;;;16.85;11.63;;;;;;;;;;5054526;28;20051;-65
2022/11/13 10:07:01;;;;;;;18.52;12.23;;;;;;;;;;5053875;28;20107;-65
2022/11/13 10:09:33;;;;;;;17.10;12.40;;;;;;;;;;5054329;28;20134;-65
2022/11/13 10:12:02;;;;;;;14.48;10.88;;;;;;;;;;5054323;28;20601;-65
2022/11/13 10:14:45;;;;;;;15.68;11.68;;;;;;;;;;5054000;28;20049;-65
2022/11/13 10:17:26;;;;;;;14.70;11.23;;;;;;;;;;5054440;28;20037;-65
2022/11/13 10:20:00;;;;;;;14.55;11.73;;;;;;;;;;5053703;28;20048;-65
2022/11/13 10:22:29;;;;;;;15.77;11.38;;;;;;;;;;5053667;28;20087;-65
2022/11/13 10:24:59;;;;;;;14.18;11.30;;;;;;;;;;5054016;28;20048;-65
2022/11/13 10:27:25;;;;;;;13.50;11.20;;;;;;;;;;5054187;28;20086;-65
2022/11/13 10:29:52;;;;;;;19.17;11.88;;;;;;;;;;5053720;28;20045;-65
2022/11/13 10:32:23;;;;;;;16.92;12.27;;;;;;;;;;5054003;28;20044;-65
2022/11/13 10:34:58;;;;;;;15.23;11.15;;;;;;;;;;5054089;28;20040;-65
2022/11/13 10:37:39;;;;;;;14.88;11.18;;;;;;;;;;5053532;28;20128;-65
2022/11/13 10:40:06;;;;;;;13.52;10.13;;;;;;;;;;5053722;28;20080;-65
2022/11/13 10:42:37;;;;;;;12.90;9.98;;;;;;;;;;5054006;28;20072;-65
2022/11/13 10:45:04;;;;;;;12.25;9.95;;;;;;;;;;5053220;28;20048;-65
2022/11/13 10:47:33;;;;;;;13.27;9.30;;;;;;;;;;5053727;28;20041;-65
2022/11/13 10:50:12;;;;;;;10.52;8.63;;;;;;;;;;5053658;28;20119;-65
2022/11/13 10:52:45;;;;;;;11.30;9.15;;;;;;;;;;5053120;28;20053;-65
2022/11/13 10:55:35;;;;;;;10.27;8.82;;;;;;;;;;5053389;28;20102;-65
2022/11/13 10:58:02;;;;;;;11.40;8.80;;;;;;;;;;5053466;28;20068;-65
2022/11/13 11:00:33;;;;;;;12.32;8.20;;;;;;;;;;5053216;28;20379;-65
2022/11/13 11:02:59;;;;;;;11.80;8.98;;;;;;;;;;5053513;28;20110;-65
2022/11/13 11:05:26;;;;;;;11.00;8.60;;;;;;;;;;5053036;28;20044;-65
2022/11/13 11:07:53;;;;;;;11.23;8.07;;;;;;;;;;5053185;28;20093;-65
2022/11/13 11:10:33;;;;;;;10.45;8.18;;;;;;;;;;5053159;28;20144;-65
2022/11/13 11:13:02;;;;;;;11.23;8.70;;;;;;;;;;5052585;28;20090;-65
2022/11/13 11:15:28;;;;;;;13.15;8.18;;;;;;;;;;5053161;28;20062;-65
2022/11/13 11:18:14;;;;;;;10.30;8.45;;;;;;;;;;5053037;28;20123;-65
2022/11/13 11:20:47;;;;;;;16.98;10.60;;;;;;;;;;5029670;28;20049;-65
2022/11/13 11:23:22;;;;;;;16.10;10.57;;;;;;;;;;5030339;28;20046;-65
2022/11/13 11:25:51;;;;;;;12.48;9.27;;;;;;;;;;5030207;28;20077;-65
2022/11/13 11:28:28;;;;;;;13.40;7.75;;;;;;;;;;5030030;28;20116;-65
2022/11/13 11:31:03;;;;;;;9.98;7.65;;;;;;;;;;5029185;28;20100;-65
2022/11/13 11:33:32;;;;;;;9.82;7.45;;;;;;;;;;5030236;28;20041;-65
2022/11/13 11:36:13;;;;;;;10.55;7.30;;;;;;;;;;5029829;28;20053;-65
2022/11/13 11:38:48;;;;;;;8.93;7.05;;;;;;;;;;5030164;28;20396;-65
2022/11/13 11:41:15;;;;;;;9.20;6.88;;;;;;;;;;5029900;28;20547;-65
2022/11/13 11:43:47;;;;;;;11.80;6.80;;;;;;;;;;5029788;28;20033;-65
2022/11/13 11:46:13;;;;;;;8.52;7.03;;;;;;;;;;5029773;28;20052;-65
2022/11/13 11:48:40;;;;;;;8.43;6.68;;;;;;;;;;5030034;28;20034;-65
2022/11/13 11:51:25;;;;;;;7.72;6.35;;;;;;;;;;5035182;28;20049;-65
2022/11/13 11:54:10;;;;;;;7.97;6.22;;;;;;;;;;5052722;28;20029;-65
2022/11/13 11:56:39;;;;;;;7.50;6.30;;;;;;;;;;5052423;28;20080;-65
2022/11/13 11:59:24;;;;;;;7.43;6.15;;;;;;;;;;5051780;28;20040;-65
2022/11/13 12:01:50;;;;;;;7.53;6.05;;;;;;;;;;5051969;28;20040;-65
2022/11/13 12:04:22;;;;;;;7.88;6.15;;;;;;;;;;5052261;28;20044;-65
2022/11/13 12:06:48;;;;;;;;;;;;;;;;;;5052158;28;20045;-65
2022/11/13 12:09:27;;;;;;;8.93;5.75;;;;;;;;;;5052214;28;19920;-65
2022/11/13 12:11:58;;;;;;;5.60;4.97;;;;;;;;;;5052003;28;20919;-65
2022/11/13 12:14:46;;;;;;;6.05;5.40;;;;;;;;;;5051749;28;20059;-65
2022/11/13 12:17:26;;;;;;;6.28;5.18;;;;;;;;;;5051927;28;20510;-65
2022/11/13 12:19:59;;;;;;;8.20;5.60;;;;;;;;;;5051492;28;20499;-65
2022/11/13 12:22:42;;;;;;;6.55;4.90;;;;;;;;;;5051742;28;20075;-63
2022/11/13 12:25:12;;;;;;;5.68;4.85;;;;;;;;;;5051919;28;20423;-63
2022/11/13 12:27:50;;;;;;;9.55;4.93;;;;;;;;;;5051357;28;20044;-63
2022/11/13 12:30:18;;;;;;;5.70;5.00;;;;;;;;;;5051716;28;20043;-63
2022/11/13 12:33:03;;;;;;;7.50;5.45;;;;;;;;;;5050372;28;20125;-65
2022/11/13 12:35:29;;;;;;;6.28;5.25;;;;;;;;;;5051209;28;20048;-65
2022/11/13 12:37:56;;;;;;;7.70;5.68;;;;;;;;;;5051790;28;20052;-63
2022/11/13 12:40:34;;;;;;;7.88;5.60;;;;;;;;;;5051653;28;20044;-63
2022/11/13 12:43:01;;;;;;;6.95;5.80;;;;;;;;;;5051249;28;20064;-63
2022/11/13 12:45:30;;;;;;;8.48;5.47;;;;;;;;;;5051503;28;20509;-63
2022/11/13 12:47:56;;;;;;;5.65;5.05;;;;;;;;;;5051651;28;20045;-63
2022/11/13 12:50:27;;;;;;;7.88;4.82;;;;;;;;;;5051262;28;20041;-64
2022/11/13 12:53:00;;;;;;;5.50;4.83;;;;;;;;;;5051773;28;20048;-64
2022/11/13 12:55:29;;;;;;;7.88;4.85;;;;;;;;;;5051534;28;20395;-64
2022/11/13 12:57:56;;;;;;;5.97;5.00;;;;;;;;;;5051150;28;20207;-64
2022/11/13 13:00:25;;;;;;;7.97;5.32;;;;;;;;;;5051129;28;20069;-64
2022/11/13 13:03:04;;;;;;;5.22;4.45;;;;;;;;;;5051204;28;20036;-64
2022/11/13 13:05:36;;;;;;;5.78;4.72;;;;;;;;;;5050616;28;20045;-64
2022/11/13 13:08:27;;;;;;;7.28;5.03;;;;;;;;;;5051529;28;20059;-64
2022/11/13 13:10:56;;;;;;;5.75;5.25;;;;;;;;;;5051286;28;20045;-64
2022/11/13 13:13:27;;;;;;;5.82;5.10;;;;;;;;;;5050531;28;20053;-64
2022/11/13 13:15:55;;;;;;;7.03;5.20;;;;;;;;;;5051259;28;20041;-64
2022/11/13 13:18:21;;;;;;;6.55;5.15;;;;;;;;;;5051281;28;20052;-64
2022/11/13 13:21:10;;;;;;;6.30;5.40;;;;;;;;;;5050407;28;20124;-64
2022/11/13 13:23:38;;;;;;;7.10;5.18;;;;;;;;;;5043043;28;20049;-64
2022/11/13 13:26:24;;;;;;;6.30;5.68;;;;;;;;;;5050937;28;20048;-64
2022/11/13 13:28:52;;;;;;;7.07;5.13;;;;;;;;;;5050869;28;20182;-64
2022/11/13 13:31:39;;;;;;;5.20;4.60;;;;;;;;;;5051138;28;20045;-64
2022/11/13 13:34:23;;;;;;;7.25;5.32;;;;;;;;;;5037296;28;20049;-64
2022/11/13 13:36:52;;;;;;;7.75;5.47;;;;;;;;;;5051156;28;20040;-64
2022/11/13 13:39:24;;;;;;;5.97;5.00;;;;;;;;;;5051244;28;20082;-64
2022/11/13 13:41:50;;;;;;;7.55;6.03;;;;;;;;;;5050558;28;20040;-64
2022/11/13 13:44:23;;;;;;;7.88;5.13;;;;;;;;;;5049436;28;20041;-64
2022/11/13 13:46:49;;;;;;;6.25;4.68;;;;;;;;;;5051166;28;20400;-64
2022/11/13 13:49:17;;;;;;;7.45;5.35;;;;;;;;;;5050788;28;20363;-64
2022/11/13 13:51:45;;;;;;;7.68;5.07;;;;;;;;;;5051014;28;20048;-64
2022/11/13 13:54:23;;;;;;;6.65;5.53;;;;;;;;;;5052586;28;20043;-64
2022/11/13 13:56:49;;;;;;;7.25;5.07;;;;;;;;;;5054329;28;20120;-64
2022/11/13 13:59:15;;;;;;;6.85;5.28;;;;;;;;;;5054788;28;20120;-64
2022/11/13 14:01:41;;;;;;;6.05;5.45;;;;;;;;;;5054271;28;20056;-64
2022/11/13 14:04:17;;;;;;;5.40;4.90;;;;;;;;;;5054252;28;20438;-64
2022/11/13 14:06:50;;;;;;;5.93;4.93;;;;;;;;;;5054482;28;20602;-64
2022/11/13 14:09:26;;;;;;;7.20;5.38;;;;;;;;;;5034591;28;20041;-64
2022/11/13 14:12:00;;;;;;;7.93;5.70;;;;;;;;;;5034096;28;20048;-64
2022/11/13 14:14:26;;;;;;;6.00;5.18;;;;;;;;;;5034461;28;20057;-64
2022/11/13 14:16:54;;;;;;;6.97;5.72;;;;;;;;;;5034125;28;20045;-64
2022/11/13 14:19:20;;;;;;;8.10;5.90;;;;;;;;;;5034069;28;20033;-64
2022/11/13 14:21:48;;;;;;;7.30;5.45;;;;;;;;;;5034369;28;20038;-64
2022/11/13 14:24:26;;;;;;;8.45;6.00;;;;;;;;;;5034387;28;20217;-64
2022/11/13 14:26:53;;;;;;;6.75;5.57;;;;;;;;;;5050328;28;20041;-64
2022/11/13 14:29:22;;;;;;;8.32;6.05;;;;;;;;;;5054207;28;20047;-64
2022/11/13 14:31:48;;;;;;;9.63;6.00;;;;;;;;;;5054035;28;20045;-64
2022/11/13 14:34:16;;;;;;;7.35;5.95;;;;;;;;;;5053480;28;20053;-64
2022/11/13 14:36:43;;;;;;;9.63;6.45;;;;;;;;;;5053980;28;20462;-64